Port Huron, MI

5:39 AM EDT on May 29, 2017 (GMT -0400)
Saint Clair County International

Weather History for KPHN - April, 2014

Change the Weather History Date:

Friday, April 25, 2014

  Actual Average (KMTC) Record (KMTC)
Temperature  
Mean Temperature 43 °F -  
Max Temperature 53 °F 59 °F 90 °F (1990)
Min Temperature 33 °F 37 °F 27 °F (1974)
Degree Days  
Heating Degree Days 22    
Moisture  
Dew Point 33 °F    
Average Humidity 68    
Maximum Humidity 100    
Minimum Humidity 41    
Precipitation  
Precipitation 0.00 in - - ()
Sea Level Pressure  
Sea Level Pressure 29.76 in    
Wind  
Wind Speed 7 mph (East)    
Max Wind Speed 14 mph    
Max Gust Speed 22 mph    
Visibility 9 miles    
Events Fog , Rain    
Averages and records for this station are not official NWS values.
T = Trace of Precipitation, MM = Missing Value Source: NWS Daily Summary

Daily Weather History Graph

Daily Weather History Graph

Search for Another Location

Airport or City:

Trip Planner

Search our weather history database for the weather conditions in past years. The results will help you decide how hot, cold, wet, or windy it might be!

Date:

Astronomy

Apr. 25, 2014 Rise Set
Actual Time 6:32 AM EDT 8:24 PM EDT
Civil Twilight 6:02 AM EDT 8:54 PM EDT
Nautical Twilight 5:25 AM EDT 9:31 PM EDT
Astronomical Twilight 4:45 AM EDT 10:12 PM EDT
Moon 4:26 AM EDT (4/25) 4:39 PM EDT (4/25)
Length of Visible Light 14h 52m
Length of Day
13h 51m
Waning Crescent, 15% of the Moon is Illuminated
Apr 25
Waning Crescent
Apr 29
New
May 6
First Quarter
May 14
Full
May 21
Last Quarter

Hourly Weather History & Observations

Time (EDT) Temp. Windchill Dew Point Humidity Pressure Visibility Wind Dir Wind Speed Gust Speed Precip Events Conditions
12:17 AM 42.8 °F 38.0 °F 23.0 °F 46% 29.91 in 10.0 mi ESE 8.1 mph - N/A   Scattered Clouds
12:37 AM 42.8 °F 37.5 °F 23.0 °F 46% 29.90 in 10.0 mi ESE 9.2 mph - N/A   Scattered Clouds
12:57 AM 42.8 °F 38.0 °F 23.0 °F 46% 29.89 in 10.0 mi ESE 8.1 mph - N/A   Scattered Clouds
1:17 AM 42.8 °F 37.0 °F 23.0 °F 46% 29.89 in 10.0 mi ESE 10.4 mph - N/A   Scattered Clouds
1:37 AM 42.8 °F 37.0 °F 23.0 °F 46% 29.87 in 10.0 mi ESE 10.4 mph - N/A   Scattered Clouds
1:57 AM 42.8 °F 36.6 °F 23.0 °F 46% 29.86 in 10.0 mi East 11.5 mph 16.1 mph N/A   Scattered Clouds
2:17 AM 42.8 °F 38.6 °F 23.0 °F 46% 29.86 in 10.0 mi ESE 6.9 mph 16.1 mph N/A   Scattered Clouds
2:37 AM 42.8 °F 40.1 °F 23.0 °F 46% 29.86 in 10.0 mi SE 4.6 mph - N/A   Clear
2:57 AM 44.6 °F 42.2 °F 23.0 °F 43% 29.86 in 10.0 mi ESE 4.6 mph - N/A   Clear
3:17 AM 42.8 °F 39.3 °F 24.8 °F 49% 29.85 in 10.0 mi East 5.8 mph - N/A   Clear
3:37 AM 44.6 °F 40.2 °F 23.0 °F 43% 29.83 in 10.0 mi East 8.1 mph - N/A   Clear
3:57 AM 44.6 °F 40.7 °F 23.0 °F 43% 29.81 in 10.0 mi East 6.9 mph - N/A   Clear
4:17 AM 44.6 °F 40.7 °F 24.8 °F 46% 29.80 in 10.0 mi East 6.9 mph - N/A   Clear
4:37 AM 44.6 °F 41.4 °F 24.8 °F 46% 29.79 in 10.0 mi East 5.8 mph - N/A   Clear
4:57 AM 44.6 °F 40.7 °F 26.6 °F 49% 29.79 in 10.0 mi East 6.9 mph - N/A   Clear
5:17 AM 44.6 °F 40.2 °F 26.6 °F 49% 29.78 in 10.0 mi East 8.1 mph - N/A   Clear
5:37 AM 44.6 °F 40.2 °F 26.6 °F 49% 29.77 in 10.0 mi East 8.1 mph - N/A   Clear
5:57 AM 42.8 °F 38.0 °F 26.6 °F 53% 29.76 in 10.0 mi East 8.1 mph - N/A   Clear
6:17 AM 42.8 °F 38.0 °F 26.6 °F 53% 29.75 in 10.0 mi East 8.1 mph - N/A   Clear
6:37 AM 42.8 °F 38.6 °F 26.6 °F 53% 29.74 in 10.0 mi East 6.9 mph - N/A   Clear
6:57 AM 44.6 °F 40.2 °F 26.6 °F 49% 29.74 in 10.0 mi East 8.1 mph - N/A   Clear
7:17 AM 44.6 °F 40.7 °F 26.6 °F 49% 29.73 in 10.0 mi East 6.9 mph - N/A   Clear
7:37 AM 44.6 °F 40.7 °F 26.6 °F 49% 29.72 in 10.0 mi East 6.9 mph - N/A   Clear
7:57 AM 44.6 °F 40.2 °F 26.6 °F 49% 29.72 in 10.0 mi East 8.1 mph - N/A   Clear
8:17 AM 46.4 °F 41.9 °F 26.6 °F 46% 29.71 in 10.0 mi East 9.2 mph - N/A   Scattered Clouds
8:37 AM 46.4 °F 41.9 °F 26.6 °F 46% 29.70 in 10.0 mi East 9.2 mph - N/A   Scattered Clouds
8:57 AM 48.2 °F - 28.4 °F 46% 29.69 in 10.0 mi East 9.2 mph - N/A   Clear
9:17 AM 48.2 °F - 28.4 °F 46% 29.69 in 10.0 mi East 6.9 mph - N/A   Mostly Cloudy
9:37 AM 48.2 °F - 28.4 °F 46% 29.68 in 10.0 mi East 6.9 mph - N/A   Overcast
9:57 AM 50.0 °F - 28.4 °F 43% 29.68 in 10.0 mi ESE 5.8 mph - N/A   Overcast
10:17 AM 51.8 °F - 28.4 °F 41% 29.68 in 10.0 mi ESE 5.8 mph - N/A   Overcast
10:37 AM 51.8 °F - 30.2 °F 44% 29.68 in 10.0 mi ESE 4.6 mph - N/A   Overcast
10:57 AM 51.8 °F - 30.2 °F 44% 29.67 in 10.0 mi East 3.5 mph - N/A   Overcast
11:17 AM 51.8 °F - 30.2 °F 44% 29.67 in 10.0 mi SE 4.6 mph - N/A Rain Light Rain
11:37 AM 53.6 °F - 30.2 °F 41% 29.67 in 10.0 mi South 4.6 mph - N/A Rain Light Rain
11:57 AM 51.8 °F - 33.8 °F 50% 29.66 in 10.0 mi East 4.6 mph - N/A Rain Light Rain
12:17 PM 50.0 °F - 42.8 °F 76% 29.66 in 10.0 mi SSW 3.5 mph - N/A Rain Light Rain
12:37 PM 48.2 °F - 42.8 °F 82% 29.68 in 10.0 mi South 8.1 mph - N/A Rain Rain
12:57 PM 46.4 °F 42.4 °F 41.0 °F 81% 29.69 in 10.0 mi South 8.1 mph - N/A Rain Light Rain
1:17 PM 44.6 °F 42.2 °F 41.0 °F 87% 29.69 in 7.0 mi SSW 4.6 mph - N/A Rain Rain
1:37 PM 44.6 °F - 41.0 °F 87% 29.69 in 7.0 mi Calm Calm - N/A Rain Rain
1:57 PM 44.6 °F 42.2 °F 42.8 °F 93% 29.69 in 10.0 mi West 4.6 mph - N/A Rain Rain
2:17 PM 44.6 °F - 41.0 °F 87% 29.69 in 10.0 mi Calm Calm - N/A Rain Rain
2:37 PM 44.6 °F 43.1 °F 42.8 °F 93% 29.69 in 7.0 mi West 3.5 mph - N/A Rain Light Rain
2:57 PM 42.8 °F 36.6 °F 41.0 °F 93% 29.71 in 7.0 mi WNW 11.5 mph 18.4 mph N/A   Drizzle
3:17 PM 42.8 °F 38.6 °F 41.0 °F 93% 29.70 in 10.0 mi NW 6.9 mph - N/A   Overcast
3:37 PM 42.8 °F 41.1 °F 41.0 °F 93% 29.68 in 10.0 mi NNE 3.5 mph - N/A   Overcast
3:57 PM 44.6 °F 43.1 °F 42.8 °F 93% 29.69 in 10.0 mi North 3.5 mph - N/A   Overcast
4:17 PM 44.6 °F 38.1 °F 42.8 °F 93% 29.70 in 10.0 mi WNW 13.8 mph 17.3 mph N/A   Overcast
4:37 PM 44.6 °F 38.4 °F 41.0 °F 87% 29.71 in 10.0 mi WNW 12.7 mph 19.6 mph N/A   Overcast
4:57 PM 42.8 °F 37.5 °F 41.0 °F 93% 29.71 in 10.0 mi NW 9.2 mph - N/A   Overcast
5:17 PM 44.6 °F 39.2 °F 39.2 °F 81% 29.72 in 10.0 mi NW 10.4 mph 19.6 mph N/A   Overcast
5:37 PM 44.6 °F 38.8 °F 39.2 °F 81% 29.73 in 10.0 mi NW 11.5 mph 21.9 mph N/A   Overcast
5:57 PM 44.6 °F 39.7 °F 39.2 °F 81% 29.74 in 10.0 mi NW 9.2 mph 17.3 mph N/A   Overcast
6:17 PM 44.6 °F 39.7 °F 41.0 °F 87% 29.74 in 10.0 mi WNW 9.2 mph 16.1 mph N/A   Overcast
6:37 PM 44.6 °F 39.2 °F 41.0 °F 87% 29.75 in 10.0 mi WNW 10.4 mph 16.1 mph N/A   Overcast
6:57 PM 44.6 °F 40.2 °F 39.2 °F 81% 29.76 in 10.0 mi WNW 8.1 mph 17.3 mph N/A   Overcast
7:17 PM 44.6 °F 39.2 °F 41.0 °F 87% 29.77 in 10.0 mi WNW 10.4 mph 16.1 mph N/A   Overcast
7:37 PM 44.6 °F 39.7 °F 41.0 °F 87% 29.77 in 10.0 mi WNW 9.2 mph 17.3 mph N/A   Overcast
7:57 PM 44.6 °F 40.7 °F 41.0 °F 87% 29.78 in 10.0 mi NW 6.9 mph - N/A   Overcast
8:17 PM 44.6 °F 41.4 °F 39.2 °F 81% 29.79 in 10.0 mi WNW 5.8 mph - N/A   Mostly Cloudy
8:37 PM 42.8 °F - 39.2 °F 87% 29.79 in 10.0 mi Calm Calm - N/A   Clear
8:57 PM 42.8 °F - 39.2 °F 87% 29.80 in 10.0 mi Calm Calm - N/A   Clear
9:17 PM 39.2 °F - 37.4 °F 93% 29.80 in 7.0 mi Calm Calm - N/A   Clear
9:37 PM 37.4 °F - 35.6 °F 93% 29.81 in 4.0 mi Calm Calm - N/A   Clear
9:57 PM 35.6 °F - 35.6 °F 100% 29.82 in 0.5 mi Calm Calm - N/A Fog Fog
10:17 PM 35.6 °F - 35.6 °F 100% 29.82 in 0.5 mi Calm Calm - N/A Fog Fog
10:37 PM 35.6 °F - 35.6 °F 100% 29.82 in 1.8 mi Calm Calm - N/A   Scattered Clouds
10:57 PM 35.6 °F - 33.8 °F 93% 29.82 in 2.0 mi Calm Calm - N/A   Clear
11:17 PM 35.6 °F - 33.8 °F 93% 29.82 in 3.0 mi Calm Calm - N/A   Clear
11:37 PM 33.8 °F - 33.8 °F 100% 29.81 in 0.5 mi Calm Calm - N/A Fog Fog
11:57 PM 33.8 °F - 33.8 °F 100% 29.81 in 0.2 mi Calm Calm - N/A Fog Fog